Time;durP1;ratioP1;P1;durP2;ratioP2;P2;SDS_P1;SDS_P2;PMS_P1;PMS_P2;Temp;Humidity;BMP_temperature;BMP_pressure;BME280_temperature;BME280_humidity;BME280_pressure;Samples;Min_cycle;Max_cycle;Signal;HPM_P1;HPM_P2
2021/07/26 00:26:28;;;;;;;;;;;;;;;;;;;;;
2021/07/26 00:43:00;;;;;;;5.18;4.32;;;22.10;97.60;;;;;;4889814;28;20124;-90
2021/07/26 00:48:33;;;;;;;7.00;4.50;;;22.00;97.70;;;;;;5020500;28;20030;-89
2021/07/26 00:51:34;;;;;;;6.43;4.20;;;22.00;97.70;;;;;;5019774;28;20030;-89
2021/07/26 01:08:31;;;;;;;5.88;4.20;;;21.80;97.50;;;;;;4996457;28;20178;-89
2021/07/26 01:15:04;;;;;;;5.22;4.40;;;21.70;97.60;;;;;;5014226;28;20073;-89
2021/07/26 01:21:54;;;;;;;9.68;4.40;;;21.70;97.90;;;;;;4941425;29;20119;-90
2021/07/26 01:31:46;;;;;;;7.22;4.97;;;21.50;98.10;;;;;;4952926;28;20090;-89
2021/07/26 01:35:29;;;;;;;6.57;5.03;;;21.50;98.20;;;;;;4998698;28;20066;-89
2021/07/26 01:51:48;;;;;;;;;;;;;;;;;;;;;
2021/07/26 01:58:09;;;;;;;8.27;6.45;;;21.20;99.10;;;;;;4999647;28;20038;-89
2021/07/26 02:11:21;;;;;;;9.38;6.28;;;21.10;99.30;;;;;;4956897;28;20129;-90
2021/07/26 02:14:24;;;;;;;10.18;6.53;;;21.10;99.40;;;;;;4998655;28;20042;-90
2021/07/26 02:17:55;;;;;;;;;;;;;;;;;;;;;
2021/07/26 02:20:42;;;;;;;10.00;6.90;;;21.10;99.50;;;;;;5019230;28;20034;-89
2021/07/26 02:24:03;;;;;;;9.00;6.65;;;21.10;99.50;;;;;;5018371;28;20045;-90
2021/07/26 02:26:37;;;;;;;11.07;6.38;;;21.00;99.50;;;;;;5044195;28;20053;-90
2021/07/26 02:29:18;;;;;;;10.85;6.70;;;21.00;99.70;;;;;;5022314;28;20386;-88
2021/07/26 02:31:48;;;;;;;9.60;6.45;;;21.00;99.70;;;;;;5018547;28;20050;-91
2021/07/26 02:34:22;;;;;;;9.40;7.15;;;21.00;99.70;;;;;;5018567;28;20337;-89
2021/07/26 02:37:20;;;;;;;11.13;7.68;;;21.00;99.80;;;;;;5018712;28;20044;-89
2021/07/26 02:39:57;;;;;;;10.68;7.00;;;21.00;99.90;;;;;;5018595;28;20421;-89
2021/07/26 02:42:36;;;;;;;;;;;;;;;;;;;;;
2021/07/26 02:45:16;;;;;;;9.65;6.38;;;21.00;99.90;;;;;;5022577;28;20026;-90
2021/07/26 02:47:44;;;;;;;11.27;6.32;;;21.00;99.90;;;;;;5022792;28;20030;-89
2021/07/26 02:53:46;;;;;;;;;;;;;;;;;;;;;
2021/07/26 02:56:53;;;;;;;12.68;6.05;;;21.00;99.90;;;;;;5023934;28;20033;-90
2021/07/26 03:00:11;;;;;;;10.18;6.72;;;21.00;99.80;;;;;;4986709;28;20076;-91
2021/07/26 03:06:23;;;;;;;7.88;5.70;;;20.90;99.60;;;;;;4982175;28;20117;-90
2021/07/26 03:09:15;;;;;;;10.68;5.80;;;20.90;99.50;;;;;;4991552;28;20034;-90
2021/07/26 03:12:12;;;;;;;;;;;;;;;;;;;;;
2021/07/26 03:14:51;;;;;;;8.10;5.47;;;20.90;99.40;;;;;;5023303;28;20026;-89
2021/07/26 03:17:29;;;;;;;7.50;5.88;;;20.90;99.40;;;;;;5022129;28;20034;-90
2021/07/26 03:20:50;;;;;;;7.60;5.90;;;20.90;99.40;;;;;;5022202;28;20061;-89
2021/07/26 03:23:26;;;;;;;12.43;5.78;;;20.90;99.40;;;;;;5018128;28;20034;-89
2021/07/26 03:26:03;;;;;;;7.97;5.50;;;20.90;99.40;;;;;;5021836;28;20154;-90
2021/07/26 03:28:45;;;;;;;7.07;5.80;;;20.90;99.30;;;;;;5018902;28;20038;-90
2021/07/26 03:31:29;;;;;;;7.95;5.90;;;20.80;99.20;;;;;;5021678;28;20325;-90
2021/07/26 03:34:04;;;;;;;10.82;5.93;;;20.80;99.10;;;;;;5022068;28;20092;-90
2021/07/26 03:40:39;;;;;;;8.23;5.07;;;20.90;99.00;;;;;;5022645;28;20486;-90
2021/07/26 03:43:27;;;;;;;7.30;5.63;;;20.80;98.90;;;;;;5022276;28;20180;-89
2021/07/26 03:45:58;;;;;;;10.02;5.45;;;20.90;98.90;;;;;;5021175;28;20046;-90
2021/07/26 03:49:31;;;;;;;7.63;5.50;;;20.80;98.90;;;;;;5038016;28;20136;-90
2021/07/26 03:52:18;;;;;;;10.45;5.90;;;20.80;98.90;;;;;;4983682;28;20398;-90
2021/07/26 03:55:00;;;;;;;;;;;;;;;;;;;;;
2021/07/26 04:00:54;;;;;;;;;;;;;;;;;;;;;
2021/07/26 04:03:44;;;;;;;9.63;5.35;;;20.80;99.00;;;;;;5024539;28;20089;-91
2021/07/26 04:06:24;;;;;;;8.98;6.18;;;20.90;99.00;;;;;;5023204;28;20396;-90
2021/07/26 04:09:14;;;;;;;10.02;5.45;;;20.80;99.00;;;;;;5026442;28;20038;-91
2021/07/26 04:12:37;;;;;;;10.05;5.30;;;20.90;98.90;;;;;;5031463;28;20038;-91
2021/07/26 04:15:40;;;;;;;10.15;5.30;;;20.90;98.80;;;;;;5038579;28;20096;-91
2021/07/26 04:18:28;;;;;;;13.68;4.97;;;20.90;98.80;;;;;;5021554;28;20042;-91
2021/07/26 04:21:36;;;;;;;5.72;4.88;;;20.90;98.70;;;;;;5015685;28;20052;-91
2021/07/26 04:25:09;;;;;;;19.35;5.80;;;21.00;98.70;;;;;;5016634;28;20064;-91
2021/07/26 04:35:38;;;;;;;;;;;;;;;;;;;;;
2021/07/26 04:38:24;;;;;;;12.75;5.50;;;21.20;98.20;;;;;;5015065;28;20038;-91
2021/07/26 04:44:36;;;;;;;14.88;6.07;;;21.30;97.90;;;;;;4980563;28;20211;-91
2021/07/26 04:47:32;;;;;;;12.15;4.90;;;21.40;97.80;;;;;;4963984;28;20043;-91
2021/07/26 05:00:45;;;;;;;4.88;3.92;;;21.80;96.90;;;;;;4941595;29;20027;-90
2021/07/26 05:10:40;;;;;;;8.17;3.67;;;22.10;95.60;;;;;;5020567;28;20036;-90
2021/07/26 05:24:24;;;;;;;;;;;;;;;;;;;;;
2021/07/26 05:30:56;;;;;;;5.00;3.13;;;22.50;94.50;;;;;;4974993;28;19910;-91
2021/07/26 05:37:34;;;;;;;8.15;3.03;;;22.50;94.10;;;;;;4922536;29;20500;-91
2021/07/26 05:47:52;;;;;;;;;;;;;;;;;;;;;
2021/07/26 05:51:00;;;;;;;6.60;3.10;;;22.20;94.20;;;;;;4940570;29;20062;-91
2021/07/26 05:54:20;;;;;;;8.27;3.15;;;22.20;94.40;;;;;;4970629;28;20054;-90
2021/07/26 06:04:12;;;;;;;3.90;2.78;;;22.20;94.20;;;;;;4959870;28;20111;-91
2021/07/26 06:38:31;;;;;;;5.38;2.75;;;22.70;93.10;;;;;;4847017;29;20491;-93
2021/07/26 06:51:54;;;;;;;4.43;1.70;;;23.10;91.50;;;;;;4884486;29;20044;-92
2021/07/26 06:59:00;;;;;;;4.28;2.50;;;23.30;91.00;;;;;;4876733;29;20040;-92
2021/07/26 07:05:34;;;;;;;4.10;1.67;;;23.50;88.60;;;;;;4884863;29;20358;-90
2021/07/26 07:08:11;;;;;;;2.88;1.58;;;23.70;88.60;;;;;;4876688;29;20606;-91
2021/07/26 07:22:20;;;;;;;3.78;2.10;;;24.10;87.90;;;;;;4835123;29;20045;-93
2021/07/26 07:24:59;;;;;;;3.58;2.40;;;24.30;89.00;;;;;;4874196;28;20197;-90
2021/07/26 07:28:35;;;;;;;6.05;2.90;;;24.40;88.00;;;;;;4967342;28;20058;-90
2021/07/26 07:31:36;;;;;;;3.97;2.75;;;24.60;88.70;;;;;;4994297;28;20038;-91
2021/07/26 07:33:53;;;;;;;3.05;2.13;;;24.70;88.70;;;;;;5020135;28;20033;-93
2021/07/26 07:36:52;;;;;;;3.83;2.78;;;24.80;88.50;;;;;;5022512;28;20045;-91
2021/07/26 07:39:18;;;;;;;3.30;2.90;;;24.90;89.40;;;;;;5021631;28;20042;-92
2021/07/26 07:45:25;;;;;;;8.57;3.08;;;25.10;87.30;;;;;;5022818;28;20032;-93
2021/07/26 07:48:05;;;;;;;4.88;2.85;;;25.10;87.80;;;;;;5034068;28;20033;-92
2021/07/26 07:50:38;;;;;;;3.53;2.50;;;25.30;88.30;;;;;;5023601;28;20127;-92
2021/07/26 07:53:04;;;;;;;5.32;2.80;;;25.30;87.30;;;;;;5037446;28;20038;-91
2021/07/26 07:59:06;;;;;;;;;;;;;;;;;;;;;
2021/07/26 08:01:42;;;;;;;4.18;2.85;;;25.60;86.30;;;;;;5021682;28;20037;-92
2021/07/26 08:07:29;;;;;;;5.00;2.40;;;25.70;86.20;;;;;;5021688;28;20061;-91
2021/07/26 08:10:29;;;;;;;4.38;2.40;;;25.80;86.30;;;;;;5021681;28;20310;-95
2021/07/26 08:13:12;;;;;;;5.85;2.67;;;26.00;84.20;;;;;;5039904;28;20038;-89
2021/07/26 08:16:02;;;;;;;3.85;2.75;;;26.10;82.60;;;;;;5037976;28;20048;-89
2021/07/26 08:18:44;;;;;;;3.17;2.30;;;26.20;83.00;;;;;;5020704;28;20452;-92
2021/07/26 08:21:13;;;;;;;;;;;26.30;82.70;;;;;;5021348;28;20089;-92
2021/07/26 08:24:11;;;;;;;3.42;2.08;;;26.40;82.60;;;;;;5020764;28;20007;-92
2021/07/26 08:27:09;;;;;;;3.17;2.15;;;26.50;81.50;;;;;;5027407;28;20050;-91
2021/07/26 08:29:51;;;;;;;5.95;2.15;;;26.70;81.10;;;;;;5032448;28;20124;-91
2021/07/26 08:32:55;;;;;;;3.80;2.47;;;26.70;80.00;;;;;;5020808;28;20041;-91
2021/07/26 08:35:42;;;;;;;3.53;2.28;;;26.70;81.60;;;;;;5020831;28;20042;-92
2021/07/26 08:38:46;;;;;;;3.45;2.28;;;26.90;80.30;;;;;;5020573;28;20042;-92
2021/07/26 08:41:37;;;;;;;4.22;2.03;;;27.00;79.30;;;;;;5020757;28;20049;-91
2021/07/26 08:44:26;;;;;;;;;;;;;;;;;;;;;
2021/07/26 08:47:24;;;;;;;4.13;2.00;;;27.20;78.60;;;;;;5021146;28;20064;-91
2021/07/26 08:50:35;;;;;;;2.95;2.47;;;27.30;79.30;;;;;;5020706;28;20120;-90
2021/07/26 08:53:03;;;;;;;4.55;2.22;;;27.30;78.70;;;;;;4993702;28;20187;-89
2021/07/26 08:55:57;;;;;;;3.50;2.28;;;27.30;80.10;;;;;;5020237;28;20049;-92
2021/07/26 08:59:01;;;;;;;2.78;2.13;;;27.30;79.30;;;;;;5028188;28;20041;-90
2021/07/26 09:04:31;;;;;;;6.63;2.88;;;27.50;79.80;;;;;;5025452;28;20037;-91
2021/07/26 09:06:57;;;;;;;7.88;2.53;;;27.60;79.10;;;;;;5022541;28;20041;-90
2021/07/26 09:10:00;;;;;;;9.32;2.40;;;27.60;77.20;;;;;;5020913;28;20033;-89
2021/07/26 09:12:36;;;;;;;3.25;2.35;;;27.80;78.40;;;;;;5019924;28;20037;-90
2021/07/26 09:15:25;;;;;;;6.25;2.58;;;27.90;78.70;;;;;;5019926;28;20033;-90
2021/07/26 09:17:52;;;;;;;2.92;2.20;;;28.10;76.60;;;;;;5022595;28;20107;-90
2021/07/26 09:20:28;;;;;;;7.50;2.60;;;28.20;77.00;;;;;;5025416;28;20038;-88
2021/07/26 09:22:58;;;;;;;2.90;2.13;;;28.30;77.60;;;;;;5019312;28;20331;-91
2021/07/26 09:25:55;;;;;;;3.75;2.28;;;28.40;74.90;;;;;;5019244;28;20042;-91
2021/07/26 09:28:49;;;;;;;2.55;1.98;;;28.40;74.50;;;;;;5019118;28;20045;-91
2021/07/26 09:32:09;;;;;;;4.07;2.55;;;28.40;74.40;;;;;;5018669;28;20129;-92
2021/07/26 09:35:25;;;;;;;3.67;2.47;;;28.40;75.50;;;;;;5035828;28;20046;-91
2021/07/26 09:38:02;;;;;;;3.63;2.22;;;28.50;73.90;;;;;;5006981;28;20056;-91
2021/07/26 09:40:55;;;;;;;;;;;;;;;;;;;;;
2021/07/26 09:43:27;;;;;;;2.17;1.90;;;28.50;72.40;;;;;;5020995;28;20032;-90
2021/07/26 09:45:59;;;;;;;2.67;2.28;;;28.40;72.40;;;;;;5019090;28;20141;-89
2021/07/26 09:48:26;;;;;;;;;;;28.50;74.00;;;;;;5019535;28;20133;-90
2021/07/26 09:50:56;;;;;;;4.95;1.90;;;28.50;74.20;;;;;;5019661;28;19916;-91
2021/07/26 09:53:24;;;;;;;3.53;1.95;;;28.60;74.80;;;;;;5019133;28;20049;-90
2021/07/26 09:55:53;;;;;;;4.32;2.30;;;28.60;73.90;;;;;;5019219;28;20041;-90
2021/07/26 09:58:46;;;;;;;4.78;1.95;;;28.60;74.80;;;;;;5020283;28;20046;-91
2021/07/26 10:01:18;;;;;;;3.08;2.38;;;28.70;74.90;;;;;;5018108;28;20045;-90
2021/07/26 10:03:45;;;;;;;3.63;2.15;;;28.90;74.70;;;;;;5018425;28;20050;-91
2021/07/26 10:06:13;;;;;;;4.22;2.08;;;29.00;76.00;;;;;;5025724;28;20061;-89
2021/07/26 10:08:41;;;;;;;3.72;2.33;;;29.20;73.70;;;;;;5018569;28;20034;-90
2021/07/26 10:11:14;;;;;;;4.82;2.33;;;29.30;74.60;;;;;;5018461;28;20029;-89
2021/07/26 10:14:09;;;;;;;3.63;1.75;;;29.50;72.30;;;;;;5022360;28;20102;-91
2021/07/26 10:16:45;;;;;;;4.45;2.15;;;29.60;72.30;;;;;;5024246;28;20057;-91
2021/07/26 10:19:16;;;;;;;4.15;2.40;;;29.80;72.60;;;;;;5019623;28;20464;-91
2021/07/26 10:22:28;;;;;;;2.80;2.25;;;29.90;72.10;;;;;;5018932;28;20037;-91
2021/07/26 10:25:26;;;;;;;3.00;1.90;;;29.90;70.90;;;;;;5025445;28;20081;-92
2021/07/26 10:28:29;;;;;;;3.55;2.42;;;30.00;70.50;;;;;;4981977;28;20055;-91
2021/07/26 10:31:57;;;;;;;;;;;;;;;;;;;;;
2021/07/26 10:34:56;;;;;;;;;;;;;;;;;;;;;
2021/07/26 10:38:01;;;;;;;2.20;1.92;;;30.10;69.70;;;;;;4994738;28;20077;-93
2021/07/26 10:40:45;;;;;;;2.20;1.85;;;30.10;68.50;;;;;;4981593;28;20125;-92
2021/07/26 10:44:00;;;;;;;3.50;1.90;;;30.00;68.10;;;;;;4982131;28;20042;-92
2021/07/26 10:46:53;;;;;;;5.55;1.80;;;30.00;72.10;;;;;;5015055;28;20049;-92
2021/07/26 10:49:45;;;;;;;2.38;1.90;;;30.20;70.90;;;;;;5021720;28;20097;-94
2021/07/26 10:52:25;;;;;;;4.05;2.00;;;30.40;68.90;;;;;;5025937;28;20038;-90
2021/07/26 10:55:09;;;;;;;1.55;1.33;;;30.40;66.60;;;;;;5018899;28;20052;-94
2021/07/26 10:57:57;;;;;;;;;;;;;;;;;;;;;
2021/07/26 11:00:24;;;;;;;4.00;2.17;;;30.60;64.60;;;;;;5029648;28;20069;-90
2021/07/26 11:02:53;;;;;;;3.72;2.10;;;30.60;65.40;;;;;;5019502;28;20125;-91
2021/07/26 11:05:24;;;;;;;3.88;1.92;;;30.60;66.70;;;;;;5018655;28;20386;-91
2021/07/26 11:08:23;;;;;;;4.03;2.05;;;30.70;64.70;;;;;;5023046;28;20048;-92
2021/07/26 11:10:53;;;;;;;3.53;1.70;;;30.70;64.00;;;;;;5040030;28;20096;-91
2021/07/26 11:13:21;;;;;;;2.70;1.98;;;30.70;64.00;;;;;;5022145;28;20034;-90
2021/07/26 11:19:23;;;;;;;2.85;1.95;;;30.80;63.20;;;;;;5022383;28;20048;-93
2021/07/26 11:22:03;;;;;;;2.92;1.73;;;30.90;65.30;;;;;;5022143;28;20033;-92
2021/07/26 11:24:45;;;;;;;2.90;1.95;;;31.00;68.20;;;;;;5021190;28;20042;-92
2021/07/26 11:27:14;;;;;;;;;;;31.20;65.80;;;;;;5022281;28;20124;-90
2021/07/26 11:29:52;;;;;;;2.42;1.58;;;31.30;65.70;;;;;;5021701;28;20419;-93
2021/07/26 11:32:36;;;;;;;2.65;2.00;;;31.40;67.50;;;;;;5022148;28;20033;-92
2021/07/26 11:35:06;;;;;;;2.35;1.83;;;31.60;68.90;;;;;;5029462;28;20038;-91
2021/07/26 11:37:50;;;;;;;3.13;2.35;;;31.80;64.00;;;;;;5032806;28;20038;-96
2021/07/26 11:40:19;;;;;;;3.20;2.05;;;31.90;65.00;;;;;;5021595;28;20069;-91
2021/07/26 11:42:45;;;;;;;2.97;1.92;;;31.90;64.60;;;;;;5021201;28;20298;-91
2021/07/26 11:45:40;;;;;;;2.83;2.25;;;31.80;63.70;;;;;;5021417;28;20042;-95
2021/07/26 11:48:18;;;;;;;3.47;1.83;;;31.80;62.00;;;;;;5020157;28;20070;-93
2021/07/26 11:50:43;;;;;;;5.10;1.95;;;31.60;62.50;;;;;;5020965;28;20314;-92
2021/07/26 11:53:09;;;;;;;2.42;1.90;;;31.60;63.90;;;;;;5021724;28;20037;-91
2021/07/26 11:55:34;;;;;;;3.47;1.60;;;31.50;62.70;;;;;;5021281;28;20218;-89
2021/07/26 11:58:12;;;;;;;6.47;1.65;;;31.30;61.10;;;;;;5020707;28;20049;-93
2021/07/26 12:00:46;;;;;;;2.65;1.98;;;31.10;66.00;;;;;;5021411;28;20050;-91
2021/07/26 12:03:18;;;;;;;2.63;2.00;;;31.20;63.80;;;;;;5021265;28;20041;-92
2021/07/26 12:06:01;;;;;;;4.35;1.90;;;31.20;62.10;;;;;;5020828;28;20099;-93
2021/07/26 12:08:28;;;;;;;2.28;1.88;;;31.30;62.10;;;;;;5021447;28;20068;-91
2021/07/26 12:10:56;;;;;;;4.22;1.92;;;31.20;61.90;;;;;;5031473;28;20057;-90
2021/07/26 12:13:57;;;;;;;3.20;1.95;;;31.10;64.00;;;;;;5031212;28;20068;-90
2021/07/26 12:16:28;;;;;;;2.80;1.92;;;31.20;64.60;;;;;;5013644;28;20149;-90
2021/07/26 12:19:12;;;;;;;3.05;2.33;;;31.30;63.80;;;;;;5020588;28;20467;-89
2021/07/26 12:21:43;;;;;;;2.92;1.95;;;31.40;63.40;;;;;;5029052;28;20041;-91
2021/07/26 12:24:13;;;;;;;2.13;1.70;;;31.50;62.80;;;;;;5023378;28;20038;-90
2021/07/26 12:26:57;;;;;;;3.97;2.75;;;31.60;63.90;;;;;;5020600;28;20340;-90
2021/07/26 12:29:22;;;;;;;3.53;2.05;;;31.60;62.10;;;;;;5035861;28;20100;-90
2021/07/26 12:32:03;;;;;;;7.55;2.05;;;31.60;63.10;;;;;;5020208;28;20301;-90
2021/07/26 12:34:29;;;;;;;2.65;1.80;;;31.40;62.40;;;;;;5030912;28;20092;-90
2021/07/26 12:37:21;;;;;;;8.63;3.03;;;31.30;63.20;;;;;;5032482;28;20053;-92
2021/07/26 12:39:51;;;;;;;3.90;2.17;;;31.20;62.40;;;;;;5021744;28;20042;-90
2021/07/26 12:42:21;;;;;;;3.60;2.03;;;31.00;63.90;;;;;;5021375;28;20065;-90
2021/07/26 12:44:49;;;;;;;3.42;2.30;;;30.80;64.20;;;;;;5022898;28;20042;-89
2021/07/26 12:47:37;;;;;;;5.38;2.03;;;30.80;64.10;;;;;;5031794;28;20120;-90
2021/07/26 12:50:07;;;;;;;4.47;2.72;;;30.70;63.90;;;;;;5027108;28;20065;-90
2021/07/26 12:52:32;;;;;;;4.07;2.03;;;30.70;64.40;;;;;;5020772;28;20378;-89
2021/07/26 12:55:07;;;;;;;5.85;2.47;;;30.60;64.40;;;;;;5020738;28;20029;-91
2021/07/26 12:57:35;;;;;;;4.93;2.13;;;30.40;64.00;;;;;;5020247;28;20044;-89
2021/07/26 13:00:09;;;;;;;5.20;2.20;;;30.30;64.70;;;;;;5020408;28;20034;-90
2021/07/26 13:02:40;;;;;;;5.18;2.58;;;30.10;66.50;;;;;;5019586;28;20435;-90
2021/07/26 13:05:16;;;;;;;3.25;2.08;;;30.10;66.00;;;;;;5019903;28;20038;-93
2021/07/26 13:07:55;;;;;;;3.13;2.28;;;30.00;65.90;;;;;;5019918;28;20082;-93
2021/07/26 13:10:24;;;;;;;3.60;2.50;;;29.90;66.20;;;;;;5020488;28;20034;-91
2021/07/26 13:12:50;;;;;;;3.03;2.25;;;29.80;67.20;;;;;;5020348;28;20050;-91
2021/07/26 13:15:16;;;;;;;7.38;2.80;;;29.80;66.60;;;;;;5020187;28;20125;-90
2021/07/26 13:17:44;;;;;;;3.40;1.95;;;29.90;67.60;;;;;;5022557;28;20100;-90
2021/07/26 13:20:10;;;;;;;2.67;2.20;;;29.90;68.40;;;;;;5019925;28;20144;-90
2021/07/26 13:22:41;;;;;;;7.50;2.30;;;30.00;66.30;;;;;;5028464;28;20065;-91
2021/07/26 13:25:09;;;;;;;3.50;2.17;;;30.00;67.20;;;;;;5029713;28;20049;-89
2021/07/26 13:27:41;;;;;;;7.82;2.03;;;30.00;67.50;;;;;;5019660;28;20482;-90
2021/07/26 13:30:31;;;;;;;3.85;2.40;;;30.10;67.00;;;;;;5018721;28;20381;-92
2021/07/26 13:32:58;;;;;;;2.97;2.22;;;30.10;66.30;;;;;;5019478;28;20048;-90
2021/07/26 13:35:24;;;;;;;2.80;2.42;;;30.00;66.40;;;;;;5019270;28;20034;-90
2021/07/26 13:38:04;;;;;;;6.63;2.70;;;30.00;66.40;;;;;;5019743;28;20479;-90
2021/07/26 13:40:30;;;;;;;3.70;2.70;;;30.00;67.50;;;;;;5018381;28;20045;-90
2021/07/26 13:43:02;;;;;;;2.40;2.00;;;29.90;65.70;;;;;;5019031;28;20267;-91
2021/07/26 13:45:27;;;;;;;3.40;2.35;;;29.80;65.70;;;;;;5018473;28;20092;-90
2021/07/26 13:48:05;;;;;;;4.63;2.50;;;29.80;65.20;;;;;;5019023;28;20069;-90
2021/07/26 13:50:34;;;;;;;3.78;2.47;;;29.80;66.20;;;;;;5035405;28;20092;-90
2021/07/26 13:53:02;;;;;;;2.88;2.33;;;29.70;66.00;;;;;;5029379;28;20041;-91
2021/07/26 13:55:31;;;;;;;5.28;2.90;;;29.80;68.30;;;;;;5021995;28;20056;-91
2021/07/26 13:58:00;;;;;;;3.35;2.40;;;29.70;66.90;;;;;;5024846;28;20065;-90
2021/07/26 14:00:25;;;;;;;4.30;2.97;;;29.80;67.70;;;;;;5031278;28;20049;-90
2021/07/26 14:02:51;;;;;;;3.30;2.83;;;29.80;67.50;;;;;;5019188;28;20475;-91
2021/07/26 14:05:18;;;;;;;5.00;2.63;;;29.80;66.90;;;;;;5019013;28;20048;-90
2021/07/26 14:07:47;;;;;;;4.53;2.78;;;29.90;68.80;;;;;;5019138;28;20393;-90
2021/07/26 14:10:12;;;;;;;5.28;3.72;;;29.90;66.00;;;;;;5017608;28;20313;-90
2021/07/26 14:12:38;;;;;;;4.25;2.35;;;29.80;66.00;;;;;;5018772;28;20038;-90
2021/07/26 14:15:09;;;;;;;3.25;2.72;;;29.70;64.90;;;;;;5018669;28;20029;-91
2021/07/26 14:17:39;;;;;;;4.67;2.60;;;29.60;64.70;;;;;;5018784;28;20038;-90
2021/07/26 14:20:08;;;;;;;3.70;2.45;;;29.60;65.70;;;;;;5019335;28;20064;-90
2021/07/26 14:22:34;;;;;;;6.07;2.72;;;29.60;66.40;;;;;;5023413;28;20271;-90
2021/07/26 14:24:59;;;;;;;2.75;1.92;;;29.50;66.50;;;;;;5017982;28;20053;-90
2021/07/26 14:27:25;;;;;;;4.30;2.78;;;29.50;66.00;;;;;;5018876;28;20424;-90
2021/07/26 14:29:55;;;;;;;3.75;2.53;;;29.50;65.30;;;;;;5018334;28;20029;-90
2021/07/26 14:32:21;;;;;;;3.38;2.05;;;29.40;66.90;;;;;;5019171;28;20064;-90
2021/07/26 14:34:50;;;;;;;3.63;2.60;;;29.40;66.60;;;;;;5030324;28;20081;-91
2021/07/26 14:37:18;;;;;;;7.47;2.33;;;29.30;66.50;;;;;;5023744;28;20365;-91
2021/07/26 14:39:47;;;;;;;5.43;2.40;;;29.20;67.00;;;;;;5020830;28;20053;-92
2021/07/26 14:42:23;;;;;;;3.63;2.45;;;29.10;68.00;;;;;;5024232;28;20037;-91
2021/07/26 14:44:51;;;;;;;4.45;2.33;;;29.00;67.70;;;;;;5025522;28;20061;-89
2021/07/26 14:47:19;;;;;;;3.35;2.65;;;29.00;68.20;;;;;;5025208;28;20041;-91
2021/07/26 14:50:00;;;;;;;4.07;2.67;;;28.90;68.80;;;;;;5024754;28;20042;-91
2021/07/26 14:52:26;;;;;;;8.90;2.55;;;28.80;69.30;;;;;;5041501;28;20065;-91
2021/07/26 14:54:51;;;;;;;5.25;2.10;;;28.30;75.50;;;;;;5024993;28;20345;-89
2021/07/26 15:01:06;;;;;;;2.95;1.38;;;26.80;82.60;;;;;;5003996;28;20489;-90
2021/07/26 15:04:03;;;;;;;4.78;1.60;;;26.10;84.80;;;;;;4983429;28;20111;-93
2021/07/26 15:07:11;;;;;;;6.43;1.70;;;25.60;85.20;;;;;;4986932;28;20042;-90
2021/07/26 15:09:56;;;;;;;2.42;1.20;;;25.00;87.00;;;;;;5025045;28;20048;-90
2021/07/26 15:12:38;;;;;;;2.88;1.38;;;24.60;87.90;;;;;;5040486;28;20026;-92
2021/07/26 15:15:20;;;;;;;2.40;1.25;;;24.40;88.10;;;;;;5026093;28;20049;-92
2021/07/26 15:17:46;;;;;;;2.23;1.30;;;24.10;87.20;;;;;;5024871;28;20033;-91
2021/07/26 15:20:33;;;;;;;7.18;1.63;;;24.00;86.00;;;;;;5025373;28;20360;-91
2021/07/26 15:23:02;;;;;;;1.65;0.95;;;23.90;86.40;;;;;;5025080;28;20098;-92
2021/07/26 15:26:10;;;;;;;;;;;;;;;;;;;;;
2021/07/26 15:36:07;;;;;;;1.33;0.88;;;23.80;84.90;;;;;;5028329;28;20028;-92
2021/07/26 17:08:00;;;;;;;;;;;;;;;;;;;;;
2021/07/26 17:14:18;;;;;;;;;;;;;;;;;;;;;
2021/07/26 17:21:00;;;;;;;3.53;2.20;;;25.90;80.10;;;;;;4984558;28;20040;-94
2021/07/26 17:35:26;;;;;;;5.28;2.50;;;25.80;81.90;;;;;;4883724;29;20064;-93
2021/07/26 17:38:42;;;;;;;2.90;1.88;;;25.80;82.60;;;;;;4775162;30;20116;-92
2021/07/26 17:45:16;;;;;;;3.40;2.90;;;25.80;83.60;;;;;;4826803;29;20529;-94
2021/07/26 18:01:49;;;;;;;4.00;2.75;;;25.80;87.00;;;;;;4940895;29;20062;-93
2021/07/26 18:05:09;;;;;;;4.32;3.05;;;25.80;86.50;;;;;;4981695;28;20030;-92
2021/07/26 18:08:04;;;;;;;3.58;2.55;;;25.80;86.50;;;;;;5009297;28;20057;-91
2021/07/26 18:13:46;;;;;;;4.43;2.80;;;25.80;87.00;;;;;;4978636;28;20039;-94
2021/07/26 18:20:16;;;;;;;3.92;2.83;;;25.80;87.50;;;;;;5006506;28;20034;-93
2021/07/26 18:27:19;;;;;;;;;;;;;;;;;;;;;
2021/07/26 18:30:13;;;;;;;9.98;3.60;;;25.80;88.00;;;;;;4997670;28;20602;-93
2021/07/26 18:32:46;;;;;;;8.60;3.53;;;25.70;88.40;;;;;;5001327;28;20044;-93
2021/07/26 18:35:12;;;;;;;10.43;3.28;;;25.70;88.50;;;;;;5019146;28;20033;-93
2021/07/26 18:38:27;;;;;;;6.95;2.90;;;25.70;88.60;;;;;;5019176;28;20346;-94
2021/07/26 18:41:34;;;;;;;6.28;3.08;;;25.60;88.50;;;;;;5018894;28;20038;-95
2021/07/26 19:23:14;;;;;;;4.35;3.20;;;24.20;89.60;;;;;;4994563;28;20865;-95
2021/07/26 20:20:47;;;;;;;2.85;2.53;;;23.50;90.40;;;;;;4992997;28;20049;-90
2021/07/26 20:27:39;;;;;;;;;;;;;;;;;;;;;
2021/07/26 20:38:10;;;;;;;3.70;2.83;;;23.10;91.00;;;;;;4885179;29;20529;-91
2021/07/26 20:41:28;;;;;;;;;;;;;;;;;;;;;
2021/07/26 20:44:38;;;;;;;;;;;;;;;;;;;;;
2021/07/26 20:50:55;;;;;;;4.25;2.88;;;23.00;91.30;;;;;;4961321;29;20373;-91
2021/07/26 20:53:50;;;;;;;;;;;;;;;;;;;;;
2021/07/26 20:56:27;;;;;;;5.95;3.78;;;22.90;91.40;;;;;;5001707;28;20034;-90
2021/07/26 20:59:10;;;;;;;4.68;3.38;;;23.00;91.50;;;;;;5028268;28;20069;-91
2021/07/26 21:05:19;;;;;;;6.20;3.63;;;23.00;91.60;;;;;;4941508;29;20309;-91
2021/07/26 21:08:03;;;;;;;4.68;3.17;;;22.90;91.70;;;;;;4939641;28;20050;-91
2021/07/26 21:10:52;;;;;;;4.88;3.17;;;23.00;91.80;;;;;;5020254;28;20046;-90
2021/07/26 21:13:40;;;;;;;4.85;3.20;;;22.90;91.90;;;;;;5020089;28;20046;-90
2021/07/26 21:16:37;;;;;;;7.90;4.25;;;22.90;92.00;;;;;;5036544;28;20034;-90
2021/07/26 21:19:05;;;;;;;4.70;3.35;;;22.90;92.20;;;;;;5019719;28;20033;-88
2021/07/26 21:21:35;;;;;;;4.40;3.50;;;22.80;92.60;;;;;;5019751;28;20034;-89
2021/07/26 21:24:03;;;;;;;6.07;3.88;;;22.80;92.50;;;;;;5019729;28;20038;-89
2021/07/26 21:26:35;;;;;;;4.88;3.55;;;22.80;92.70;;;;;;5019382;28;20104;-89
2021/07/26 21:29:01;;;;;;;5.82;4.40;;;22.70;92.90;;;;;;5018994;28;20038;-89
2021/07/26 21:31:28;;;;;;;6.90;3.88;;;22.70;93.10;;;;;;5019177;28;20034;-88
2021/07/26 21:34:03;;;;;;;4.82;4.30;;;22.70;93.20;;;;;;5019164;28;20363;-88
2021/07/26 21:36:29;;;;;;;7.15;4.72;;;22.70;93.40;;;;;;5019530;28;20389;-89
2021/07/26 21:38:57;;;;;;;6.05;4.07;;;22.60;93.60;;;;;;5019255;28;20099;-89
2021/07/26 21:42:07;;;;;;;5.28;4.03;;;22.60;93.60;;;;;;5020410;28;20041;-90
2021/07/26 21:44:46;;;;;;;5.38;3.97;;;22.60;93.80;;;;;;5008216;28;20052;-89
2021/07/26 21:47:27;;;;;;;6.15;4.35;;;22.60;94.20;;;;;;5019275;28;20124;-90
2021/07/26 21:49:55;;;;;;;9.63;4.53;;;22.60;94.50;;;;;;5024148;28;20049;-89
2021/07/26 21:52:21;;;;;;;6.85;4.28;;;22.60;94.60;;;;;;5027652;28;20424;-87
2021/07/26 21:54:47;;;;;;;8.43;4.80;;;22.60;94.80;;;;;;5018498;28;20124;-88
2021/07/26 21:57:15;;;;;;;7.03;4.78;;;22.60;95.00;;;;;;5018040;28;20037;-89
2021/07/26 21:59:52;;;;;;;6.93;3.78;;;22.60;95.20;;;;;;5019180;28;20034;-89
2021/07/26 22:02:37;;;;;;;5.28;3.83;;;22.70;95.40;;;;;;5018851;28;20038;-90
2021/07/26 22:05:18;;;;;;;;;;;;;;;;;;;;;
2021/07/26 22:07:47;;;;;;;7.63;4.00;;;22.70;95.40;;;;;;5019520;28;20044;-90
2021/07/26 22:11:27;;;;;;;;;;;;;;;;;;;;;
2021/07/26 22:17:33;;;;;;;4.68;3.67;;;22.70;95.00;;;;;;4998214;28;20041;-90
2021/07/26 22:20:21;;;;;;;5.75;3.75;;;22.70;95.00;;;;;;4982162;28;20117;-89
2021/07/26 22:23:06;;;;;;;6.03;3.85;;;22.70;94.90;;;;;;5018790;28;20042;-90
2021/07/26 22:25:34;;;;;;;5.95;4.18;;;22.70;94.90;;;;;;5017950;28;20080;-89
2021/07/26 22:28:25;;;;;;;6.00;4.47;;;22.70;94.90;;;;;;5017271;28;20412;-90
2021/07/26 22:31:46;;;;;;;;;;;;;;;;;;;;;
2021/07/26 22:34:59;;;;;;;6.15;3.42;;;22.70;95.00;;;;;;4994133;28;20059;-91
2021/07/26 22:37:33;;;;;;;6.53;3.80;;;22.60;95.10;;;;;;5001089;28;20072;-90
2021/07/26 22:40:08;;;;;;;4.18;3.13;;;22.60;95.10;;;;;;5010807;28;20042;-89
2021/07/26 22:42:34;;;;;;;4.85;3.40;;;22.60;95.10;;;;;;5018597;28;20076;-89
2021/07/26 22:45:55;;;;;;;7.40;3.85;;;22.60;95.20;;;;;;5018588;28;20033;-91
2021/07/26 23:02:47;;;;;;;4.85;3.72;;;22.60;95.10;;;;;;5022339;28;20028;-91
2021/07/26 23:06:04;;;;;;;;;;;;;;;;;;;;;
2021/07/26 23:12:06;;;;;;;5.78;3.85;;;22.50;95.10;;;;;;5035995;28;20076;-91
2021/07/26 23:22:09;;;;;;;;;;;;;;;;;;;;;
2021/07/26 23:28:46;;;;;;;6.05;3.90;;;22.40;95.20;;;;;;4945343;29;20068;-91
2021/07/26 23:35:27;;;;;;;8.23;3.78;;;22.30;95.10;;;;;;5022013;28;20026;-90
2021/07/26 23:38:40;;;;;;;5.13;3.63;;;22.30;95.00;;;;;;5013133;28;20124;-91
2021/07/26 23:45:35;;;;;;;5.22;3.42;;;22.20;94.80;;;;;;5030533;28;20012;-92
2021/07/26 23:58:21;;;;;;;4.18;3.13;;;22.10;94.90;;;;;;4962296;29;20043;-90
